Vanadzor, Armenia

3:40 PM AMT on September 02, 2014 (GMT +0400)
SHIRAK | Change Station
CLOSE
Current Station
Airport
Location: SHIRAK,
Elevation: 5000 ft
Nearby Weather Stations

Elev 5000 ft 40.75 °N, 43.86 °E | Updated 10 minutes ago

Partly Cloudy
Partly Cloudy
88 °F
Feels Like 88 °F
N
4
Wind Variable Wind from NNW

Today
High -- | Low -- °F
--% Chance of Precip.
Yesterday
High -- | Low -- °F
Precip. -- in
6:29 AM 7:33 PM
Waxing Crescent, 50% visible
Pressure 29.95 in
Visibility 6.2 miles
Clouds Few 5000 ft
Dew Point 45 °F
Humidity 22%
Rainfall 0.00 in
Snow Depth Not available.
UV 6 out of 12
Pollen Not available.
Air Quality Not available.
Flu Activity Not available.
METAR UDSG 021130Z 34002MPS 260V020 9999 FEW050 31/07 Q1014 R02/CLRD70 NOSIG

More Conditions Fewer Conditions

Pressure 29.95 in
Visibility 6.2 miles
Clouds Few 5000 ft
Dew Point 45 °F
Humidity 22%
Rainfall 0.00 in
Snow Depth Not available.
UV 6 out of 12
Pollen Not available.
Air Quality Not available.
Flu Activity Not available.
METAR UDSG 021130Z 34002MPS 260V020 9999 FEW050 31/07 Q1014 R02/CLRD70 NOSIG

More Conditions Fewer Conditions

10-Day Weather Forecast

Almanac

Astronomy

Sep. 02, 2014 Rise Set
Actual Time 6:29 AM AMT 7:33 PM AMT
Civil Twilight 6:01 AM AMT 8:01 PM AMT
Nautical Twilight 5:27 AM AMT 8:34 PM AMT
Astronomical Twilight 4:52 AM AMT 9:09 PM AMT
Moon 1:54 PM AMT No Moon Set
Length of Visible Light 13h 59m
Length of Day
13h 03m
Tomorrow will be 2m 37s shorter.
Waxing Crescent, 50% of the Moon is Illuminated
Today
Waxing Crescent
Sep 8
Full
Sep 15
Last Quarter
Sep 24
New
Oct 1
First Quarter

Yesterday's Extremes

Country Highs Country Lows

Community

WunderPhotos

Upload Photos

1,749,621 photos uploaded!

WunderBlogs® & News

By Dr. Jeff Masters
Director of Meteorology, Weather Underground
By Kari Strenfel
Meteorologist, Weather Underground
By Christopher C. Burt
Weather Historian, Weather Underground
September 2, 2014
September 2, 2014
September 2, 2014

Nearby

Snow Depth

Not available.

Earthquake Activity

City Distance Mag. Time & Date
No recent earthquake activity has been reported nearby.
Minimum magnitude displayed is 2.5.

Coastal Water Temperatures

Place Temperature
No Stations Reporting

Nearby Weather Stations